sensor_id;sensor_type;location;lat;lon;timestamp;pressure;altitude;pressure_sealevel;temperature;humidity
6435;BME280;3250;42.694;23.278;2023-08-12T00:01:47;95401.94;;;18.09;76.75
6435;BME280;3250;42.694;23.278;2023-08-12T00:04:13;95401.69;;;18.11;77.20
6435;BME280;3250;42.694;23.278;2023-08-12T00:06:40;95385.88;;;18.04;77.95
6435;BME280;3250;42.694;23.278;2023-08-12T00:09:06;95398.78;;;18.13;77.55
6435;BME280;3250;42.694;23.278;2023-08-12T00:11:33;95396.94;;;18.13;78.03
6435;BME280;3250;42.694;23.278;2023-08-12T00:13:58;95376.28;;;18.03;77.78
6435;BME280;3250;42.694;23.278;2023-08-12T00:16:23;95398.56;;;18.14;77.24
6435;BME280;3250;42.694;23.278;2023-08-12T00:18:49;95403.88;;;18.14;77.09
6435;BME280;3250;42.694;23.278;2023-08-12T00:21:14;95398.69;;;18.07;77.12
6435;BME280;3250;42.694;23.278;2023-08-12T00:23:40;95393.66;;;18.06;76.90
6435;BME280;3250;42.694;23.278;2023-08-12T00:26:07;95394.69;;;18.05;76.74
6435;BME280;3250;42.694;23.278;2023-08-12T00:28:33;95397.34;;;18.05;76.92
6435;BME280;3250;42.694;23.278;2023-08-12T00:30:59;95395.97;;;18.02;76.70
6435;BME280;3250;42.694;23.278;2023-08-12T00:33:24;95387.41;;;18.00;76.83
6435;BME280;3250;42.694;23.278;2023-08-12T00:35:49;95391.13;;;17.99;76.85
6435;BME280;3250;42.694;23.278;2023-08-12T00:38:15;95390.47;;;17.92;76.74
6435;BME280;3250;42.694;23.278;2023-08-12T00:40:40;95391.94;;;17.83;77.46
6435;BME280;3250;42.694;23.278;2023-08-12T00:43:06;95359.41;;;17.64;77.18
6435;BME280;3250;42.694;23.278;2023-08-12T00:45:31;95382.91;;;17.84;77.21
6435;BME280;3250;42.694;23.278;2023-08-12T00:47:58;95353.63;;;17.67;77.34
6435;BME280;3250;42.694;23.278;2023-08-12T00:50:23;95370.22;;;17.75;77.16
6435;BME280;3250;42.694;23.278;2023-08-12T00:52:50;95380.47;;;17.83;77.37
6435;BME280;3250;42.694;23.278;2023-08-12T00:55:16;95383.06;;;17.78;77.12
6435;BME280;3250;42.694;23.278;2023-08-12T00:57:42;95382.75;;;17.74;76.84
6435;BME280;3250;42.694;23.278;2023-08-12T01:00:08;95369.94;;;17.71;77.01
6435;BME280;3250;42.694;23.278;2023-08-12T01:02:34;95367.41;;;17.64;76.12
6435;BME280;3250;42.694;23.278;2023-08-12T01:05:00;95376.56;;;17.57;76.28
6435;BME280;3250;42.694;23.278;2023-08-12T01:07:26;95380.63;;;17.59;76.47
6435;BME280;3250;42.694;23.278;2023-08-12T01:09:52;95377.59;;;17.67;76.64
6435;BME280;3250;42.694;23.278;2023-08-12T01:12:41;95354.91;;;17.65;76.64
6435;BME280;3250;42.694;23.278;2023-08-12T01:15:23;95374.44;;;17.70;76.02
6435;BME280;3250;42.694;23.278;2023-08-12T01:17:50;95365.00;;;17.63;76.74
6435;BME280;3250;42.694;23.278;2023-08-12T01:20:22;95373.31;;;17.66;76.61
6435;BME280;3250;42.694;23.278;2023-08-12T01:22:56;95372.25;;;17.67;77.24
6435;BME280;3250;42.694;23.278;2023-08-12T01:25:24;95377.81;;;17.66;76.92
6435;BME280;3250;42.694;23.278;2023-08-12T01:27:49;95370.06;;;17.64;77.14
6435;BME280;3250;42.694;23.278;2023-08-12T01:30:15;95373.06;;;17.68;77.01
6435;BME280;3250;42.694;23.278;2023-08-12T01:32:49;95363.16;;;17.63;76.70
6435;BME280;3250;42.694;23.278;2023-08-12T01:35:30;95351.97;;;17.50;76.96
6435;BME280;3250;42.694;23.278;2023-08-12T01:37:59;95368.34;;;17.58;76.84
6435;BME280;3250;42.694;23.278;2023-08-12T01:40:26;95365.38;;;17.55;77.05
6435;BME280;3250;42.694;23.278;2023-08-12T01:42:54;95350.59;;;17.47;77.42
6435;BME280;3250;42.694;23.278;2023-08-12T01:45:19;95347.28;;;17.40;77.67
6435;BME280;3250;42.694;23.278;2023-08-12T01:47:45;95320.81;;;17.17;77.88
6435;BME280;3250;42.694;23.278;2023-08-12T01:50:10;95369.72;;;17.44;77.49
6435;BME280;3250;42.694;23.278;2023-08-12T01:52:36;95370.41;;;17.40;77.75
6435;BME280;3250;42.694;23.278;2023-08-12T01:55:01;95364.22;;;17.34;77.53
6435;BME280;3250;42.694;23.278;2023-08-12T01:57:27;95366.41;;;17.37;77.66
6435;BME280;3250;42.694;23.278;2023-08-12T01:59:52;95355.81;;;17.25;77.96
6435;BME280;3250;42.694;23.278;2023-08-12T02:02:17;95362.84;;;17.31;77.92
6435;BME280;3250;42.694;23.278;2023-08-12T02:04:43;95378.00;;;17.31;78.05
6435;BME280;3250;42.694;23.278;2023-08-12T02:07:09;95367.50;;;17.24;78.04
6435;BME280;3250;42.694;23.278;2023-08-12T02:09:34;95362.09;;;17.19;78.24
6435;BME280;3250;42.694;23.278;2023-08-12T02:12:00;95372.59;;;17.26;78.44
6435;BME280;3250;42.694;23.278;2023-08-12T02:14:25;95368.31;;;17.25;78.29
6435;BME280;3250;42.694;23.278;2023-08-12T02:16:51;95346.25;;;17.13;78.51
6435;BME280;3250;42.694;23.278;2023-08-12T02:19:16;95370.16;;;17.24;77.83
6435;BME280;3250;42.694;23.278;2023-08-12T02:21:42;95360.38;;;17.13;77.84
6435;BME280;3250;42.694;23.278;2023-08-12T02:24:08;95341.97;;;16.95;77.52
6435;BME280;3250;42.694;23.278;2023-08-12T02:26:33;95362.22;;;17.13;78.09
6435;BME280;3250;42.694;23.278;2023-08-12T02:28:59;95326.63;;;16.85;77.53
6435;BME280;3250;42.694;23.278;2023-08-12T02:31:24;95371.28;;;17.12;77.04
6435;BME280;3250;42.694;23.278;2023-08-12T02:33:50;95326.44;;;16.75;76.80
6435;BME280;3250;42.694;23.278;2023-08-12T02:36:15;95364.97;;;17.01;77.27
6435;BME280;3250;42.694;23.278;2023-08-12T02:38:41;95369.00;;;17.04;76.50
6435;BME280;3250;42.694;23.278;2023-08-12T02:41:06;95368.91;;;16.98;76.18
6435;BME280;3250;42.694;23.278;2023-08-12T02:43:32;95369.94;;;16.97;75.99
6435;BME280;3250;42.694;23.278;2023-08-12T02:45:57;95366.81;;;17.01;76.21
6435;BME280;3250;42.694;23.278;2023-08-12T02:48:23;95361.38;;;16.95;76.65
6435;BME280;3250;42.694;23.278;2023-08-12T02:50:48;95379.97;;;17.07;77.46
6435;BME280;3250;42.694;23.278;2023-08-12T02:53:15;95365.66;;;16.96;77.84
6435;BME280;3250;42.694;23.278;2023-08-12T02:55:40;95378.13;;;17.08;78.08
6435;BME280;3250;42.694;23.278;2023-08-12T02:58:06;95380.78;;;17.08;78.27
6435;BME280;3250;42.694;23.278;2023-08-12T03:00:31;95375.44;;;17.08;78.28
6435;BME280;3250;42.694;23.278;2023-08-12T03:02:57;95373.38;;;17.10;78.43
6435;BME280;3250;42.694;23.278;2023-08-12T03:05:22;95380.44;;;17.04;78.27
6435;BME280;3250;42.694;23.278;2023-08-12T03:07:48;95379.31;;;17.00;78.60
6435;BME280;3250;42.694;23.278;2023-08-12T03:10:14;95382.53;;;17.02;77.41
6435;BME280;3250;42.694;23.278;2023-08-12T03:12:40;95378.28;;;16.89;76.55
6435;BME280;3250;42.694;23.278;2023-08-12T03:15:06;95385.69;;;16.87;76.83
6435;BME280;3250;42.694;23.278;2023-08-12T03:17:32;95386.50;;;16.88;77.12
6435;BME280;3250;42.694;23.278;2023-08-12T03:19:58;95372.78;;;16.79;77.29
6435;BME280;3250;42.694;23.278;2023-08-12T03:22:29;95393.44;;;16.89;76.76
6435;BME280;3250;42.694;23.278;2023-08-12T03:24:54;95388.84;;;16.84;76.65
6435;BME280;3250;42.694;23.278;2023-08-12T03:27:20;95365.09;;;16.66;76.79
6435;BME280;3250;42.694;23.278;2023-08-12T03:29:45;95383.09;;;16.76;76.96
6435;BME280;3250;42.694;23.278;2023-08-12T03:32:11;95381.72;;;16.73;77.66
6435;BME280;3250;42.694;23.278;2023-08-12T03:34:36;95392.34;;;16.73;77.84
6435;BME280;3250;42.694;23.278;2023-08-12T03:37:02;95392.34;;;16.73;77.87
6435;BME280;3250;42.694;23.278;2023-08-12T03:39:27;95398.47;;;16.74;77.80
6435;BME280;3250;42.694;23.278;2023-08-12T03:41:53;95390.16;;;16.70;78.05
6435;BME280;3250;42.694;23.278;2023-08-12T03:44:18;95397.09;;;16.71;78.28
6435;BME280;3250;42.694;23.278;2023-08-12T03:46:44;95389.00;;;16.66;78.20
6435;BME280;3250;42.694;23.278;2023-08-12T03:49:09;95388.06;;;16.60;78.22
6435;BME280;3250;42.694;23.278;2023-08-12T03:51:34;95397.44;;;16.63;78.60
6435;BME280;3250;42.694;23.278;2023-08-12T03:54:00;95389.94;;;16.60;78.50
6435;BME280;3250;42.694;23.278;2023-08-12T03:56:25;95390.97;;;16.59;78.92
6435;BME280;3250;42.694;23.278;2023-08-12T03:58:51;95393.06;;;16.57;78.93
6435;BME280;3250;42.694;23.278;2023-08-12T04:01:16;95393.97;;;16.63;79.20
6435;BME280;3250;42.694;23.278;2023-08-12T04:03:42;95396.28;;;16.71;79.28
6435;BME280;3250;42.694;23.278;2023-08-12T04:06:07;95396.16;;;16.77;78.93
6435;BME280;3250;42.694;23.278;2023-08-12T04:08:33;95398.19;;;16.87;78.73
6435;BME280;3250;42.694;23.278;2023-08-12T04:10:58;95370.22;;;16.84;78.63
6435;BME280;3250;42.694;23.278;2023-08-12T04:13:24;95363.97;;;16.90;78.19
6435;BME280;3250;42.694;23.278;2023-08-12T04:15:50;95400.00;;;17.26;78.29
6435;BME280;3250;42.694;23.278;2023-08-12T04:18:16;95397.84;;;17.40;77.32
6435;BME280;3250;42.694;23.278;2023-08-12T04:20:42;95404.44;;;17.66;77.08
6435;BME280;3250;42.694;23.278;2023-08-12T04:23:07;95418.44;;;17.90;76.65
6435;BME280;3250;42.694;23.278;2023-08-12T04:25:32;95394.75;;;18.10;75.90
6435;BME280;3250;42.694;23.278;2023-08-12T04:27:58;95415.13;;;18.55;74.97
6435;BME280;3250;42.694;23.278;2023-08-12T04:30:23;95411.81;;;18.86;72.98
6435;BME280;3250;42.694;23.278;2023-08-12T04:32:49;95411.97;;;19.23;72.11
6435;BME280;3250;42.694;23.278;2023-08-12T04:35:15;95417.38;;;19.55;69.43
6435;BME280;3250;42.694;23.278;2023-08-12T04:37:40;95423.31;;;19.89;67.78
6435;BME280;3250;42.694;23.278;2023-08-12T04:40:06;95410.47;;;20.23;66.65
6435;BME280;3250;42.694;23.278;2023-08-12T04:42:34;95423.06;;;20.69;64.82
6435;BME280;3250;42.694;23.278;2023-08-12T04:44:59;95425.75;;;21.22;63.87
6435;BME280;3250;42.694;23.278;2023-08-12T04:47:25;95419.16;;;21.75;61.94
6435;BME280;3250;42.694;23.278;2023-08-12T04:49:50;95419.19;;;22.15;59.68
6435;BME280;3250;42.694;23.278;2023-08-12T04:52:16;95424.22;;;22.73;59.36
6435;BME280;3250;42.694;23.278;2023-08-12T04:54:43;95404.47;;;23.13;57.67
6435;BME280;3250;42.694;23.278;2023-08-12T04:57:09;95409.38;;;23.60;56.19
6435;BME280;3250;42.694;23.278;2023-08-12T04:59:35;95417.25;;;23.85;55.71
6435;BME280;3250;42.694;23.278;2023-08-12T05:02:00;95409.19;;;24.19;54.17
6435;BME280;3250;42.694;23.278;2023-08-12T05:04:26;95424.69;;;24.85;52.03
6435;BME280;3250;42.694;23.278;2023-08-12T05:06:51;95418.59;;;25.46;50.15
6435;BME280;3250;42.694;23.278;2023-08-12T05:09:17;95423.81;;;26.12;48.71
6435;BME280;3250;42.694;23.278;2023-08-12T05:11:42;95432.22;;;26.76;47.34
6435;BME280;3250;42.694;23.278;2023-08-12T05:14:07;95427.03;;;27.48;45.33
6435;BME280;3250;42.694;23.278;2023-08-12T05:16:33;95428.75;;;27.93;44.98
6435;BME280;3250;42.694;23.278;2023-08-12T05:18:59;95434.31;;;28.33;43.72
6435;BME280;3250;42.694;23.278;2023-08-12T05:21:24;95438.69;;;28.73;42.17
6435;BME280;3250;42.694;23.278;2023-08-12T05:23:50;95425.19;;;29.13;41.47
6435;BME280;3250;42.694;23.278;2023-08-12T05:26:15;95438.28;;;29.68;40.35
6435;BME280;3250;42.694;23.278;2023-08-12T05:28:40;95440.25;;;30.01;38.78
6435;BME280;3250;42.694;23.278;2023-08-12T05:31:06;95441.81;;;30.46;38.16
6435;BME280;3250;42.694;23.278;2023-08-12T05:33:31;95448.72;;;30.60;37.79
6435;BME280;3250;42.694;23.278;2023-08-12T05:35:56;95445.09;;;30.94;37.35
6435;BME280;3250;42.694;23.278;2023-08-12T05:38:22;95456.38;;;31.22;36.97
6435;BME280;3250;42.694;23.278;2023-08-12T05:40:47;95440.41;;;31.41;36.89
6435;BME280;3250;42.694;23.278;2023-08-12T05:43:13;95453.66;;;32.02;34.64
6435;BME280;3250;42.694;23.278;2023-08-12T05:45:38;95452.88;;;32.01;34.46
6435;BME280;3250;42.694;23.278;2023-08-12T05:48:04;95456.06;;;32.03;35.08
6435;BME280;3250;42.694;23.278;2023-08-12T05:50:31;95445.44;;;32.31;34.70
6435;BME280;3250;42.694;23.278;2023-08-12T05:52:56;95442.56;;;32.81;32.60
6435;BME280;3250;42.694;23.278;2023-08-12T05:55:22;95422.66;;;32.81;32.49
6435;BME280;3250;42.694;23.278;2023-08-12T05:57:47;95446.22;;;32.97;32.69
6435;BME280;3250;42.694;23.278;2023-08-12T06:00:13;95442.50;;;33.02;33.21
6435;BME280;3250;42.694;23.278;2023-08-12T06:02:38;95443.28;;;32.57;34.07
6435;BME280;3250;42.694;23.278;2023-08-12T06:05:04;95431.72;;;32.40;34.12
6435;BME280;3250;42.694;23.278;2023-08-12T06:07:30;95426.78;;;32.21;33.81
6435;BME280;3250;42.694;23.278;2023-08-12T06:09:55;95433.72;;;32.10;34.75
6435;BME280;3250;42.694;23.278;2023-08-12T06:12:20;95433.19;;;31.75;35.32
6435;BME280;3250;42.694;23.278;2023-08-12T06:14:46;95429.19;;;31.43;35.29
6435;BME280;3250;42.694;23.278;2023-08-12T06:17:11;95425.16;;;31.20;36.67
6435;BME280;3250;42.694;23.278;2023-08-12T06:19:37;95423.50;;;30.89;37.19
6435;BME280;3250;42.694;23.278;2023-08-12T06:22:02;95417.50;;;30.66;36.19
6435;BME280;3250;42.694;23.278;2023-08-12T06:24:28;95419.78;;;30.30;38.99
6435;BME280;3250;42.694;23.278;2023-08-12T06:26:53;95411.34;;;29.97;38.50
6435;BME280;3250;42.694;23.278;2023-08-12T06:29:19;95425.84;;;29.84;38.84
6435;BME280;3250;42.694;23.278;2023-08-12T06:31:44;95412.19;;;29.41;39.77
6435;BME280;3250;42.694;23.278;2023-08-12T06:34:10;95411.50;;;29.26;39.64
6435;BME280;3250;42.694;23.278;2023-08-12T06:36:35;95405.72;;;29.11;41.74
6435;BME280;3250;42.694;23.278;2023-08-12T06:39:00;95411.31;;;29.06;41.67
6435;BME280;3250;42.694;23.278;2023-08-12T06:41:26;95401.22;;;29.06;41.02
6435;BME280;3250;42.694;23.278;2023-08-12T06:43:51;95403.63;;;29.08;41.43
6435;BME280;3250;42.694;23.278;2023-08-12T06:46:17;95402.38;;;29.05;41.83
6435;BME280;3250;42.694;23.278;2023-08-12T06:48:42;95398.69;;;29.10;40.75
6435;BME280;3250;42.694;23.278;2023-08-12T06:51:07;95394.38;;;29.09;41.94
6435;BME280;3250;42.694;23.278;2023-08-12T06:53:39;95395.59;;;28.63;40.88
6435;BME280;3250;42.694;23.278;2023-08-12T06:56:04;95392.03;;;28.23;43.08
6435;BME280;3250;42.694;23.278;2023-08-12T06:58:30;95384.75;;;28.32;43.63
6435;BME280;3250;42.694;23.278;2023-08-12T07:00:56;95400.31;;;28.49;42.42
6435;BME280;3250;42.694;23.278;2023-08-12T07:03:22;95394.16;;;28.57;43.53
6435;BME280;3250;42.694;23.278;2023-08-12T07:05:48;95392.88;;;28.63;42.28
6435;BME280;3250;42.694;23.278;2023-08-12T07:08:13;95384.19;;;28.75;44.05
6435;BME280;3250;42.694;23.278;2023-08-12T07:10:39;95390.50;;;28.93;42.14
6435;BME280;3250;42.694;23.278;2023-08-12T07:13:05;95393.25;;;29.01;43.05
6435;BME280;3250;42.694;23.278;2023-08-12T07:15:30;95398.38;;;29.11;41.25
6435;BME280;3250;42.694;23.278;2023-08-12T07:17:56;95336.75;;;28.86;38.91
6435;BME280;3250;42.694;23.278;2023-08-12T07:20:23;95390.84;;;29.00;38.79
6435;BME280;3250;42.694;23.278;2023-08-12T07:22:49;95389.84;;;28.87;39.91
6435;BME280;3250;42.694;23.278;2023-08-12T07:25:14;95396.78;;;29.10;38.77
6435;BME280;3250;42.694;23.278;2023-08-12T07:27:39;95389.22;;;29.38;39.60
6435;BME280;3250;42.694;23.278;2023-08-12T07:30:05;95386.69;;;29.50;38.16
6435;BME280;3250;42.694;23.278;2023-08-12T07:32:31;95388.19;;;29.25;38.90
6435;BME280;3250;42.694;23.278;2023-08-12T07:34:56;95387.94;;;29.36;41.23
6435;BME280;3250;42.694;23.278;2023-08-12T07:37:22;95385.88;;;29.58;40.17
6435;BME280;3250;42.694;23.278;2023-08-12T07:39:47;95388.94;;;29.74;39.81
6435;BME280;3250;42.694;23.278;2023-08-12T07:42:13;95376.63;;;29.77;38.11
6435;BME280;3250;42.694;23.278;2023-08-12T07:44:38;95379.03;;;29.87;38.68
6435;BME280;3250;42.694;23.278;2023-08-12T07:47:03;95385.25;;;30.22;39.18
6435;BME280;3250;42.694;23.278;2023-08-12T07:49:29;95381.38;;;30.49;38.04
6435;BME280;3250;42.694;23.278;2023-08-12T07:51:55;95393.63;;;30.72;36.48
6435;BME280;3250;42.694;23.278;2023-08-12T07:54:20;95380.88;;;30.64;36.85
6435;BME280;3250;42.694;23.278;2023-08-12T07:56:46;95354.91;;;30.02;38.06
6435;BME280;3250;42.694;23.278;2023-08-12T07:59:11;95364.97;;;29.85;38.18
6435;BME280;3250;42.694;23.278;2023-08-12T08:01:36;95370.56;;;29.45;36.21
6435;BME280;3250;42.694;23.278;2023-08-12T08:04:02;95364.41;;;29.14;37.72
6435;BME280;3250;42.694;23.278;2023-08-12T08:06:27;95366.00;;;29.15;40.23
6435;BME280;3250;42.694;23.278;2023-08-12T08:08:54;95344.97;;;29.20;38.46
6435;BME280;3250;42.694;23.278;2023-08-12T08:11:23;95364.66;;;29.69;40.52
6435;BME280;3250;42.694;23.278;2023-08-12T08:13:49;95372.69;;;30.00;36.94
6435;BME280;3250;42.694;23.278;2023-08-12T08:16:14;95352.69;;;29.96;36.34
6435;BME280;3250;42.694;23.278;2023-08-12T08:18:40;95363.38;;;29.49;36.35
6435;BME280;3250;42.694;23.278;2023-08-12T08:21:05;95357.63;;;29.42;36.70
6435;BME280;3250;42.694;23.278;2023-08-12T08:23:30;95359.09;;;29.83;37.66
6435;BME280;3250;42.694;23.278;2023-08-12T08:25:56;95356.78;;;30.28;37.55
6435;BME280;3250;42.694;23.278;2023-08-12T08:28:21;95366.41;;;30.25;36.08
6435;BME280;3250;42.694;23.278;2023-08-12T08:30:47;95347.09;;;29.75;37.41
6435;BME280;3250;42.694;23.278;2023-08-12T08:33:12;95349.97;;;30.13;36.60
6435;BME280;3250;42.694;23.278;2023-08-12T08:35:37;95351.06;;;30.12;34.17
6435;BME280;3250;42.694;23.278;2023-08-12T08:38:03;95358.13;;;30.05;35.87
6435;BME280;3250;42.694;23.278;2023-08-12T08:40:28;95348.88;;;29.97;36.39
6435;BME280;3250;42.694;23.278;2023-08-12T08:42:54;95345.50;;;29.83;34.95
6435;BME280;3250;42.694;23.278;2023-08-12T08:45:24;95341.81;;;29.53;35.42
6435;BME280;3250;42.694;23.278;2023-08-12T08:47:51;95343.13;;;29.55;35.96
6435;BME280;3250;42.694;23.278;2023-08-12T08:50:17;95336.25;;;28.84;37.49
6435;BME280;3250;42.694;23.278;2023-08-12T08:52:43;95340.75;;;28.58;38.10
6435;BME280;3250;42.694;23.278;2023-08-12T08:55:08;95324.91;;;28.42;38.65
6435;BME280;3250;42.694;23.278;2023-08-12T08:57:35;95336.41;;;28.17;38.47
6435;BME280;3250;42.694;23.278;2023-08-12T09:00:00;95334.50;;;28.18;38.49
6435;BME280;3250;42.694;23.278;2023-08-12T09:02:26;95342.03;;;28.60;38.06
6435;BME280;3250;42.694;23.278;2023-08-12T09:04:52;95328.97;;;28.62;39.13
6435;BME280;3250;42.694;23.278;2023-08-12T09:07:18;95279.09;;;28.72;38.99
6435;BME280;3250;42.694;23.278;2023-08-12T09:09:46;95319.75;;;29.20;37.97
6435;BME280;3250;42.694;23.278;2023-08-12T09:12:15;95332.56;;;29.45;38.41
6435;BME280;3250;42.694;23.278;2023-08-12T09:14:44;95327.56;;;29.21;37.12
6435;BME280;3250;42.694;23.278;2023-08-12T09:17:11;95321.41;;;28.81;36.95
6435;BME280;3250;42.694;23.278;2023-08-12T09:19:37;95312.84;;;28.97;38.96
6435;BME280;3250;42.694;23.278;2023-08-12T09:22:07;95308.50;;;28.78;36.78
6435;BME280;3250;42.694;23.278;2023-08-12T09:24:34;95311.50;;;28.46;37.15
6435;BME280;3250;42.694;23.278;2023-08-12T09:27:00;95298.28;;;28.36;38.68
6435;BME280;3250;42.694;23.278;2023-08-12T09:29:35;95306.25;;;28.41;39.42
6435;BME280;3250;42.694;23.278;2023-08-12T09:32:12;95301.41;;;28.29;38.23
6435;BME280;3250;42.694;23.278;2023-08-12T09:34:46;95304.50;;;28.14;40.58
6435;BME280;3250;42.694;23.278;2023-08-12T09:37:12;95298.81;;;28.55;39.28
6435;BME280;3250;42.694;23.278;2023-08-12T09:39:38;95298.47;;;28.48;38.53
6435;BME280;3250;42.694;23.278;2023-08-12T09:42:04;95291.44;;;28.47;39.07
6435;BME280;3250;42.694;23.278;2023-08-12T09:44:30;95283.41;;;28.25;37.54
6435;BME280;3250;42.694;23.278;2023-08-12T09:46:58;95292.34;;;28.34;38.42
6435;BME280;3250;42.694;23.278;2023-08-12T09:49:24;95286.25;;;27.97;38.63
6435;BME280;3250;42.694;23.278;2023-08-12T09:51:51;95289.34;;;27.82;39.32
6435;BME280;3250;42.694;23.278;2023-08-12T09:54:17;95281.47;;;27.72;40.52
6435;BME280;3250;42.694;23.278;2023-08-12T09:56:49;95272.16;;;27.87;38.65
6435;BME280;3250;42.694;23.278;2023-08-12T09:59:19;95280.53;;;27.76;39.70
6435;BME280;3250;42.694;23.278;2023-08-12T10:01:49;95283.00;;;27.87;39.30
6435;BME280;3250;42.694;23.278;2023-08-12T10:04:17;95264.84;;;27.87;38.35
6435;BME280;3250;42.694;23.278;2023-08-12T10:06:44;95269.84;;;28.02;40.81
6435;BME280;3250;42.694;23.278;2023-08-12T10:09:10;95268.25;;;28.24;41.00
6435;BME280;3250;42.694;23.278;2023-08-12T10:11:36;95261.63;;;28.47;39.87
6435;BME280;3250;42.694;23.278;2023-08-12T10:14:04;95239.13;;;28.38;38.26
6435;BME280;3250;42.694;23.278;2023-08-12T10:16:30;95266.63;;;28.53;37.39
6435;BME280;3250;42.694;23.278;2023-08-12T10:18:57;95254.97;;;28.44;36.72
6435;BME280;3250;42.694;23.278;2023-08-12T10:21:24;95258.31;;;28.50;37.67
6435;BME280;3250;42.694;23.278;2023-08-12T10:23:50;95256.09;;;28.52;38.81
6435;BME280;3250;42.694;23.278;2023-08-12T10:26:17;95249.41;;;28.58;37.20
6435;BME280;3250;42.694;23.278;2023-08-12T10:28:43;95259.94;;;28.60;37.04
6435;BME280;3250;42.694;23.278;2023-08-12T10:31:11;95255.75;;;28.45;37.30
6435;BME280;3250;42.694;23.278;2023-08-12T10:33:37;95252.69;;;28.07;37.18
6435;BME280;3250;42.694;23.278;2023-08-12T10:36:03;95249.84;;;27.81;37.53
6435;BME280;3250;42.694;23.278;2023-08-12T10:38:29;95241.63;;;27.64;38.15
6435;BME280;3250;42.694;23.278;2023-08-12T10:41:17;95238.88;;;27.55;38.58
6435;BME280;3250;42.694;23.278;2023-08-12T10:43:57;95230.34;;;27.48;37.99
6435;BME280;3250;42.694;23.278;2023-08-12T10:46:32;95239.66;;;27.56;38.02
6435;BME280;3250;42.694;23.278;2023-08-12T10:54:17;95224.38;;;27.82;38.75
6435;BME280;3250;42.694;23.278;2023-08-12T11:02:19;95220.47;;;27.66;38.61
6435;BME280;3250;42.694;23.278;2023-08-12T11:04:56;95225.25;;;27.69;37.15
6435;BME280;3250;42.694;23.278;2023-08-12T11:07:32;95227.91;;;27.60;37.37
6435;BME280;3250;42.694;23.278;2023-08-12T11:12:33;95213.47;;;27.65;37.52
6435;BME280;3250;42.694;23.278;2023-08-12T11:15:03;95220.34;;;27.71;36.22
6435;BME280;3250;42.694;23.278;2023-08-12T11:17:37;95206.00;;;27.48;37.57
6435;BME280;3250;42.694;23.278;2023-08-12T11:20:05;95199.59;;;27.58;37.58
6435;BME280;3250;42.694;23.278;2023-08-12T11:22:32;95202.50;;;27.25;37.32
6435;BME280;3250;42.694;23.278;2023-08-12T11:25:00;95192.47;;;27.26;38.35
6435;BME280;3250;42.694;23.278;2023-08-12T11:27:26;95196.41;;;27.42;38.94
6435;BME280;3250;42.694;23.278;2023-08-12T11:29:52;95184.19;;;27.45;38.22
6435;BME280;3250;42.694;23.278;2023-08-12T11:32:20;95181.16;;;27.46;37.17
6435;BME280;3250;42.694;23.278;2023-08-12T11:34:46;95181.75;;;27.57;36.81
6435;BME280;3250;42.694;23.278;2023-08-12T11:37:11;95192.44;;;27.62;34.81
6435;BME280;3250;42.694;23.278;2023-08-12T11:39:38;95182.13;;;27.41;34.92
6435;BME280;3250;42.694;23.278;2023-08-12T11:42:04;95196.16;;;27.52;35.54
6435;BME280;3250;42.694;23.278;2023-08-12T11:44:29;95182.84;;;27.56;35.67
6435;BME280;3250;42.694;23.278;2023-08-12T11:46:55;95185.66;;;27.73;35.84
6435;BME280;3250;42.694;23.278;2023-08-12T11:49:20;95183.34;;;27.89;37.21
6435;BME280;3250;42.694;23.278;2023-08-12T11:51:47;95187.22;;;28.05;35.84
6435;BME280;3250;42.694;23.278;2023-08-12T11:54:14;95174.16;;;28.07;36.12
6435;BME280;3250;42.694;23.278;2023-08-12T11:56:40;95188.44;;;28.30;37.64
6435;BME280;3250;42.694;23.278;2023-08-12T11:59:06;95186.41;;;28.35;36.29
6435;BME280;3250;42.694;23.278;2023-08-12T12:01:31;95164.88;;;28.30;36.84
6435;BME280;3250;42.694;23.278;2023-08-12T12:03:59;95175.56;;;28.35;36.38
6435;BME280;3250;42.694;23.278;2023-08-12T12:06:52;95176.69;;;28.34;36.23
6435;BME280;3250;42.694;23.278;2023-08-12T12:09:18;95177.94;;;28.37;37.56
6435;BME280;3250;42.694;23.278;2023-08-12T12:11:44;95175.44;;;28.49;39.58
6435;BME280;3250;42.694;23.278;2023-08-12T12:14:10;95161.56;;;28.50;40.11
6435;BME280;3250;42.694;23.278;2023-08-12T12:16:44;95181.19;;;28.73;39.99
6435;BME280;3250;42.694;23.278;2023-08-12T12:19:16;95177.28;;;28.88;38.54
6435;BME280;3250;42.694;23.278;2023-08-12T12:21:45;95171.69;;;29.02;39.06
6435;BME280;3250;42.694;23.278;2023-08-12T12:24:11;95174.06;;;29.12;39.09
6435;BME280;3250;42.694;23.278;2023-08-12T12:26:37;95166.25;;;29.19;37.59
6435;BME280;3250;42.694;23.278;2023-08-12T12:29:03;95176.59;;;29.25;38.65
6435;BME280;3250;42.694;23.278;2023-08-12T12:31:29;95167.53;;;29.13;37.37
6435;BME280;3250;42.694;23.278;2023-08-12T12:33:54;95169.75;;;28.94;38.76
6435;BME280;3250;42.694;23.278;2023-08-12T12:36:20;95161.41;;;28.73;39.04
6435;BME280;3250;42.694;23.278;2023-08-12T12:38:45;95160.94;;;28.53;39.73
6435;BME280;3250;42.694;23.278;2023-08-12T12:41:11;95163.94;;;28.35;39.94
6435;BME280;3250;42.694;23.278;2023-08-12T12:43:36;95158.81;;;28.25;40.31
6435;BME280;3250;42.694;23.278;2023-08-12T12:46:01;95151.75;;;28.15;38.88
6435;BME280;3250;42.694;23.278;2023-08-12T12:48:27;95153.41;;;27.94;38.70
6435;BME280;3250;42.694;23.278;2023-08-12T12:50:52;95156.56;;;27.87;40.18
6435;BME280;3250;42.694;23.278;2023-08-12T12:53:17;95148.28;;;27.84;40.99
6435;BME280;3250;42.694;23.278;2023-08-12T12:55:43;95151.81;;;27.84;40.36
6435;BME280;3250;42.694;23.278;2023-08-12T12:58:09;95142.91;;;27.92;39.91
6435;BME280;3250;42.694;23.278;2023-08-12T13:00:35;95142.97;;;28.09;39.67
6435;BME280;3250;42.694;23.278;2023-08-12T13:03:00;95140.63;;;28.17;38.43
6435;BME280;3250;42.694;23.278;2023-08-12T13:05:26;95135.91;;;27.91;37.86
6435;BME280;3250;42.694;23.278;2023-08-12T13:07:51;95143.66;;;27.75;38.56
6435;BME280;3250;42.694;23.278;2023-08-12T13:10:16;95131.31;;;27.61;38.89
6435;BME280;3250;42.694;23.278;2023-08-12T13:12:42;95139.72;;;27.59;39.61
6435;BME280;3250;42.694;23.278;2023-08-12T13:15:07;95130.84;;;27.59;40.00
6435;BME280;3250;42.694;23.278;2023-08-12T13:17:33;95136.06;;;27.55;39.87
6435;BME280;3250;42.694;23.278;2023-08-12T13:19:58;95130.94;;;27.54;39.72